createdAt,value
2019-05-25T00:04:11.615Z,16.70
2019-05-25T00:09:13.354Z,19.50
2019-05-25T00:14:15.437Z,19.70
2019-05-25T00:19:19.566Z,18.90
2019-05-25T00:24:21.555Z,30.30
2019-05-25T00:29:23.363Z,24.97
2019-05-25T00:34:25.180Z,22.10
2019-05-25T00:39:27.070Z,25.33
2019-05-25T00:44:30.518Z,25.13
2019-05-25T00:49:32.369Z,24.60
2019-05-25T00:54:34.375Z,26.53
2019-05-25T00:59:36.203Z,26.70
2019-05-25T01:04:39.682Z,22.43
2019-05-25T01:09:41.550Z,25.17
2019-05-25T01:14:43.517Z,24.90
2019-05-25T01:19:45.319Z,28.60
2019-05-25T01:24:47.167Z,28.63
2019-05-25T01:29:48.960Z,27.43
2019-05-25T01:34:53.956Z,22.57
2019-05-25T01:39:57.976Z,26.20
2019-05-25T01:45:01.554Z,25.53
2019-05-25T01:50:03.576Z,28.33
2019-05-25T01:55:05.852Z,26.97
2019-05-25T02:00:09.567Z,25.20
2019-05-25T02:05:12.565Z,37.47
2019-05-25T02:10:14.706Z,28.87
2019-05-25T02:15:17.014Z,27.23
2019-05-25T02:20:18.902Z,24.83
2019-05-25T02:25:20.784Z,25.60
2019-05-25T02:30:26.731Z,28.23
2019-05-25T02:35:32.116Z,29.53
2019-05-25T02:40:34.101Z,32.20
2019-05-25T02:45:37.109Z,30.17
2019-05-25T02:50:38.922Z,32.10
2019-05-25T02:55:41.062Z,36.10
2019-05-25T03:00:42.868Z,26.10
2019-05-25T03:05:47.886Z,28.87
2019-05-25T03:10:50.302Z,36.53
2019-05-25T03:15:52.282Z,33.87
2019-05-25T03:20:54.188Z,39.43
2019-05-25T03:25:55.998Z,45.17
2019-05-25T03:30:57.826Z,36.20
2019-05-25T03:35:59.885Z,39.93
2019-05-25T03:41:01.588Z,38.00
2019-05-25T03:46:03.392Z,40.47
2019-05-25T03:51:05.235Z,40.17
2019-05-25T03:56:07.104Z,36.43
2019-05-25T04:01:09.311Z,33.80
2019-05-25T04:06:12.931Z,37.20
2019-05-25T04:11:14.765Z,37.67
2019-05-25T04:16:19.068Z,38.97
2019-05-25T04:21:20.776Z,28.77
2019-05-25T04:26:23.080Z,35.73
2019-05-25T04:31:25.203Z,32.57
2019-05-25T04:36:28.530Z,29.90
2019-05-25T04:41:33.758Z,26.63
2019-05-25T04:46:37.344Z,20.30
2019-05-25T04:51:39.131Z,16.67
2019-05-25T04:56:41.092Z,15.53
2019-05-25T05:01:42.838Z,15.60
2019-05-25T05:06:44.779Z,12.43
2019-05-25T05:11:46.568Z,15.90
2019-05-25T05:16:48.398Z,16.60
2019-05-25T05:21:50.180Z,11.73
2019-05-25T05:26:55.823Z,13.83
2019-05-25T05:31:59.030Z,13.63
2019-05-25T05:37:02.308Z,13.87
2019-05-25T05:42:07.085Z,13.57
2019-05-25T05:47:13.476Z,11.73
2019-05-25T05:52:17.922Z,9.17
2019-05-25T05:57:22.018Z,12.57
2019-05-25T06:02:26.375Z,15.33
2019-05-25T06:07:29.994Z,11.43
2019-05-25T06:12:31.705Z,12.50
2019-05-25T06:17:33.419Z,10.70
2019-05-25T06:22:35.322Z,12.90
2019-05-25T06:27:38.550Z,12.93
2019-05-25T06:32:40.385Z,10.77
2019-05-25T06:37:44.706Z,9.73
2019-05-25T06:42:46.565Z,11.63
2019-05-25T06:47:48.605Z,13.50
2019-05-25T06:52:50.698Z,8.67
2019-05-25T06:57:55.906Z,11.73
2019-05-25T07:02:57.827Z,11.23
2019-05-25T07:08:02.687Z,8.20
2019-05-25T07:13:04.534Z,7.50
2019-05-25T07:18:06.309Z,9.80
2019-05-25T07:23:08.107Z,10.17
2019-05-25T07:28:10.022Z,9.27
2019-05-25T07:33:15.106Z,10.60
2019-05-25T07:38:18.355Z,10.17
2019-05-25T07:43:20.348Z,11.70
2019-05-25T07:48:23.737Z,12.17
2019-05-25T07:53:27.129Z,13.53
2019-05-25T07:58:28.934Z,9.97
2019-05-25T08:03:30.736Z,11.90
2019-05-25T08:08:32.610Z,10.60
2019-05-25T08:13:34.602Z,12.43
2019-05-25T08:18:40.571Z,10.03
2019-05-25T08:23:42.362Z,9.90
2019-05-25T08:28:44.174Z,11.90
2019-05-25T08:33:46.100Z,11.00
2019-05-25T08:38:50.387Z,9.70
2019-05-25T08:43:54.018Z,7.03
2019-05-25T08:48:55.814Z,9.50
2019-05-25T08:53:57.782Z,8.13
2019-05-25T08:59:01.409Z,13.57
2019-05-25T09:04:04.514Z,11.20
2019-05-25T09:09:15.565Z,8.60
2019-05-25T09:14:17.404Z,5.60
2019-05-25T09:19:19.276Z,7.50
2019-05-25T09:24:21.133Z,7.77
2019-05-25T09:29:25.057Z,8.23
2019-05-25T09:34:26.904Z,10.40
2019-05-25T09:39:28.766Z,9.27
2019-05-25T09:44:30.807Z,10.80
2019-05-25T09:49:32.611Z,8.30
2019-05-25T09:54:34.459Z,11.77
2019-05-25T09:59:39.112Z,11.47
2019-05-25T10:04:41.201Z,11.10
2019-05-25T10:09:43.006Z,8.67
2019-05-25T10:14:46.237Z,5.97
2019-05-25T10:19:50.264Z,11.03
2019-05-25T10:24:52.724Z,8.73
2019-05-25T10:29:54.456Z,9.07
2019-05-25T10:34:57.671Z,6.40
2019-05-25T10:39:59.481Z,7.27
2019-05-25T10:45:02.693Z,10.10
2019-05-25T10:50:06.727Z,7.83
2019-05-25T10:55:09.280Z,10.03
2019-05-25T11:00:15.433Z,6.33
2019-05-25T11:05:17.839Z,9.00
2019-05-25T11:10:19.885Z,6.60
2019-05-25T11:15:21.964Z,8.37
2019-05-25T11:20:23.806Z,8.10
2019-05-25T11:25:25.793Z,10.57
2019-05-25T11:30:29.172Z,10.03
2019-05-25T11:35:31.281Z,9.67
2019-05-25T11:40:33.115Z,11.17
2019-05-25T11:45:35.058Z,12.47
2019-05-25T11:50:36.862Z,10.83
2019-05-25T11:55:39.801Z,10.27
2019-05-25T12:00:41.657Z,7.73
2019-05-25T12:05:43.472Z,12.20
2019-05-25T12:10:47.699Z,11.60
2019-05-25T12:15:49.578Z,12.07
2019-05-25T12:20:52.590Z,10.63
2019-05-25T12:25:54.583Z,10.03
2019-05-25T12:30:56.381Z,15.47
2019-05-25T12:35:58.418Z,12.03
2019-05-25T12:41:02.429Z,12.27
2019-05-25T12:46:04.522Z,12.37
2019-05-25T12:51:06.341Z,13.10
2019-05-25T12:56:10.969Z,12.23
2019-05-25T13:01:12.768Z,10.10
2019-05-25T13:06:17.986Z,11.67
2019-05-25T13:11:20.979Z,10.90
2019-05-25T13:16:22.747Z,11.53
2019-05-25T13:21:24.569Z,11.53
2019-05-25T13:26:26.533Z,11.27
2019-05-25T13:31:30.776Z,13.17
2019-05-25T13:36:32.643Z,9.60
2019-05-25T13:41:36.428Z,13.20
2019-05-25T13:46:38.465Z,13.90
2019-05-25T13:51:40.268Z,17.17
2019-05-25T13:56:42.012Z,11.10
2019-05-25T14:01:45.336Z,13.87
2019-05-25T14:06:47.327Z,12.97
2019-05-25T14:11:49.215Z,12.23
2019-05-25T14:16:51.014Z,13.03
2019-05-25T14:21:52.811Z,15.17
2019-05-25T14:26:54.910Z,15.30
2019-05-25T14:31:56.591Z,16.37
2019-05-25T14:36:58.570Z,14.33
2019-05-25T14:42:00.278Z,13.40
2019-05-25T14:47:02.214Z,14.13
2019-05-25T14:52:04.040Z,16.77
2019-05-25T14:57:05.919Z,13.47
2019-05-25T15:02:11.176Z,15.70
2019-05-25T15:07:16.045Z,14.07
2019-05-25T15:12:18.494Z,13.83
2019-05-25T15:17:20.274Z,14.17
2019-05-25T15:22:26.765Z,15.40
2019-05-25T15:27:28.936Z,14.57
2019-05-25T15:32:30.757Z,13.37
2019-05-25T15:37:34.480Z,15.07
2019-05-25T15:42:36.235Z,14.23
2019-05-25T15:47:38.284Z,12.03
2019-05-25T15:52:42.166Z,11.13
2019-05-25T15:57:45.769Z,10.30
2019-05-25T16:02:51.693Z,11.23
2019-05-25T16:07:53.823Z,11.00
2019-05-25T16:12:58.615Z,14.37
2019-05-25T16:18:03.919Z,12.43
2019-05-25T16:23:05.766Z,8.33
2019-05-25T16:28:07.683Z,13.17
2019-05-25T16:33:12.856Z,12.97
2019-05-25T16:38:13.195Z,11.47
2019-05-25T16:43:15.137Z,11.43
2019-05-25T16:48:16.930Z,16.97
2019-05-25T16:53:18.631Z,9.67
2019-05-25T16:58:20.422Z,12.57
2019-05-25T17:03:28.002Z,11.43
2019-05-25T17:08:25.877Z,13.80
2019-05-25T17:13:27.915Z,14.10
2019-05-25T17:18:29.709Z,16.70
2019-05-25T17:23:31.524Z,13.70
2019-05-25T17:28:33.323Z,11.97
2019-05-25T17:33:45.865Z,14.17
2019-05-25T17:38:42.570Z,11.73
2019-05-25T17:43:44.435Z,10.63
2019-05-25T17:48:46.251Z,13.43
2019-05-25T17:53:48.062Z,12.27
2019-05-25T17:58:49.866Z,10.60
2019-05-25T18:04:06.725Z,13.73
2019-05-25T18:08:57.927Z,15.77
2019-05-25T18:14:00.009Z,14.40
2019-05-25T18:19:01.854Z,16.90
2019-05-25T18:24:03.999Z,12.27
2019-05-25T18:29:05.749Z,11.63
2019-05-25T18:34:21.777Z,11.60
2019-05-25T18:39:15.186Z,11.87
2019-05-25T18:44:16.989Z,12.70
2019-05-25T18:49:18.802Z,11.60
2019-05-25T18:54:20.600Z,10.33
2019-05-25T18:59:23.626Z,12.90
2019-05-25T19:04:42.156Z,11.93
2019-05-25T19:09:29.362Z,13.97
2019-05-25T19:14:31.435Z,18.90
2019-05-25T19:19:33.233Z,14.43
2019-05-25T19:24:35.038Z,17.70
2019-05-25T19:29:36.751Z,14.47
2019-05-25T19:34:38.582Z,9.27
2019-05-25T19:39:40.373Z,8.43
2019-05-25T19:44:42.386Z,9.30
2019-05-25T19:49:46.313Z,8.33
2019-05-25T19:54:48.221Z,10.43
2019-05-25T19:59:49.917Z,12.37
2019-05-25T20:04:51.773Z,13.73
2019-05-25T20:09:53.509Z,10.60
2019-05-25T20:14:56.524Z,11.33
2019-05-25T20:19:58.344Z,11.70
2019-05-25T20:25:00.424Z,6.80
2019-05-25T20:30:02.216Z,7.73
2019-05-25T20:35:04.143Z,7.97
2019-05-25T20:40:06.098Z,11.60
2019-05-25T20:45:07.995Z,8.00
2019-05-25T20:50:09.943Z,7.97
2019-05-25T20:55:11.778Z,6.73
2019-05-25T21:00:17.049Z,7.63
2019-05-25T21:05:18.870Z,8.93
2019-05-25T21:10:20.716Z,4.90
2019-05-25T21:15:22.676Z,9.13
2019-05-25T21:20:24.413Z,8.53
2019-05-25T21:25:28.632Z,8.23
2019-05-25T21:30:30.433Z,14.50
2019-05-25T21:35:32.041Z,9.00
2019-05-25T21:40:33.896Z,9.17
2019-05-25T21:45:35.888Z,7.00
2019-05-25T21:50:37.736Z,7.70
2019-05-25T21:55:39.795Z,7.80
2019-05-25T22:00:43.780Z,10.20
2019-05-25T22:05:48.654Z,6.90
2019-05-25T22:10:50.478Z,10.73
2019-05-25T22:15:52.573Z,10.93
2019-05-25T22:20:54.369Z,8.50
2019-05-25T22:25:56.217Z,13.70
2019-05-25T22:30:58.677Z,11.80
2019-05-25T22:36:00.543Z,10.27
2019-05-25T22:41:02.379Z,16.37
2019-05-25T22:46:04.541Z,16.50
2019-05-25T22:51:06.608Z,15.20
2019-05-25T22:56:08.825Z,17.03
2019-05-25T23:01:12.977Z,17.40
2019-05-25T23:06:14.804Z,15.73
2019-05-25T23:11:16.784Z,19.57
2019-05-25T23:16:21.098Z,20.50
2019-05-25T23:21:22.773Z,17.60
2019-05-25T23:26:24.366Z,17.47
2019-05-25T23:31:26.073Z,21.07
2019-05-25T23:36:27.927Z,21.07
2019-05-25T23:41:29.681Z,23.07
2019-05-25T23:46:31.594Z,20.60
2019-05-25T23:51:33.381Z,21.57
2019-05-25T23:56:35.239Z,24.17
